sensor_id;sensor_type;location;lat;lon;timestamp;P1;durP1;ratioP1;P2;durP2;ratioP2
7747;SDS011;3918;42.564;23.164;2023-09-19T04:02:21;39.38;;;35.75;;
7747;SDS011;3918;42.564;23.164;2023-09-19T04:04:49;38.50;;;34.80;;
7747;SDS011;3918;42.564;23.164;2023-09-19T04:07:16;40.97;;;37.88;;
7747;SDS011;3918;42.564;23.164;2023-09-19T04:09:42;40.90;;;37.70;;
7747;SDS011;3918;42.564;23.164;2023-09-19T04:12:09;40.63;;;37.42;;
7747;SDS011;3918;42.564;23.164;2023-09-19T04:14:36;42.90;;;39.38;;
7747;SDS011;3918;42.564;23.164;2023-09-19T04:17:03;42.55;;;38.53;;
7747;SDS011;3918;42.564;23.164;2023-09-19T04:19:31;44.80;;;40.70;;
7747;SDS011;3918;42.564;23.164;2023-09-19T04:21:58;40.67;;;37.20;;
7747;SDS011;3918;42.564;23.164;2023-09-19T04:24:25;39.00;;;35.90;;
7747;SDS011;3918;42.564;23.164;2023-09-19T04:26:52;38.67;;;35.55;;
7747;SDS011;3918;42.564;23.164;2023-09-19T04:29:19;37.08;;;34.03;;
7747;SDS011;3918;42.564;23.164;2023-09-19T04:31:46;38.72;;;35.58;;
7747;SDS011;3918;42.564;23.164;2023-09-19T04:34:12;40.17;;;36.42;;
7747;SDS011;3918;42.564;23.164;2023-09-19T04:36:42;39.03;;;35.95;;
7747;SDS011;3918;42.564;23.164;2023-09-19T04:39:09;40.33;;;37.13;;
7747;SDS011;3918;42.564;23.164;2023-09-19T04:41:38;40.15;;;36.95;;
7747;SDS011;3918;42.564;23.164;2023-09-19T04:44:06;40.05;;;36.53;;
7747;SDS011;3918;42.564;23.164;2023-09-19T04:46:33;41.13;;;37.63;;
7747;SDS011;3918;42.564;23.164;2023-09-19T04:49:00;38.88;;;35.60;;
7747;SDS011;3918;42.564;23.164;2023-09-19T04:51:27;36.50;;;33.35;;
7747;SDS011;3918;42.564;23.164;2023-09-19T04:54:00;34.13;;;31.20;;
7747;SDS011;3918;42.564;23.164;2023-09-19T04:56:28;31.15;;;28.33;;
7747;SDS011;3918;42.564;23.164;2023-09-19T04:58:55;29.23;;;26.83;;
7747;SDS011;3918;42.564;23.164;2023-09-19T05:01:23;25.33;;;22.00;;
7747;SDS011;3918;42.564;23.164;2023-09-19T05:03:49;17.85;;;16.08;;
7747;SDS011;3918;42.564;23.164;2023-09-19T05:06:17;13.60;;;12.20;;
7747;SDS011;3918;42.564;23.164;2023-09-19T05:08:45;12.18;;;8.07;;
7747;SDS011;3918;42.564;23.164;2023-09-19T05:11:13;9.13;;;6.35;;
7747;SDS011;3918;42.564;23.164;2023-09-19T05:13:40;8.35;;;5.60;;
7747;SDS011;3918;42.564;23.164;2023-09-19T05:16:08;8.02;;;5.60;;
7747;SDS011;3918;42.564;23.164;2023-09-19T05:18:35;7.03;;;5.80;;
7747;SDS011;3918;42.564;23.164;2023-09-19T05:21:02;6.32;;;5.72;;
7747;SDS011;3918;42.564;23.164;2023-09-19T05:23:29;6.05;;;5.45;;
7747;SDS011;3918;42.564;23.164;2023-09-19T05:25:56;6.10;;;5.60;;
7747;SDS011;3918;42.564;23.164;2023-09-19T05:28:26;7.07;;;5.63;;
7747;SDS011;3918;42.564;23.164;2023-09-19T05:30:53;9.18;;;5.55;;
7747;SDS011;3918;42.564;23.164;2023-09-19T05:33:20;5.90;;;5.18;;
7747;SDS011;3918;42.564;23.164;2023-09-19T05:35:47;8.50;;;5.30;;
7747;SDS011;3918;42.564;23.164;2023-09-19T05:38:14;6.53;;;5.18;;
7747;SDS011;3918;42.564;23.164;2023-09-19T05:40:44;6.90;;;5.50;;
7747;SDS011;3918;42.564;23.164;2023-09-19T05:43:11;5.85;;;5.28;;
7747;SDS011;3918;42.564;23.164;2023-09-19T05:45:40;5.93;;;5.43;;
7747;SDS011;3918;42.564;23.164;2023-09-19T05:48:08;8.05;;;5.78;;
7747;SDS011;3918;42.564;23.164;2023-09-19T05:50:36;10.43;;;6.22;;
7747;SDS011;3918;42.564;23.164;2023-09-19T05:53:03;11.75;;;6.47;;
7747;SDS011;3918;42.564;23.164;2023-09-19T05:55:30;23.88;;;6.13;;
7747;SDS011;3918;42.564;23.164;2023-09-19T05:57:57;11.32;;;5.88;;
7747;SDS011;3918;42.564;23.164;2023-09-19T06:00:25;13.73;;;5.68;;
7747;SDS011;3918;42.564;23.164;2023-09-19T06:02:54;8.45;;;6.47;;
7747;SDS011;3918;42.564;23.164;2023-09-19T06:05:23;11.50;;;5.68;;
7747;SDS011;3918;42.564;23.164;2023-09-19T06:07:51;6.72;;;5.45;;
7747;SDS011;3918;42.564;23.164;2023-09-19T06:10:18;6.03;;;5.38;;
7747;SDS011;3918;42.564;23.164;2023-09-19T06:12:47;9.55;;;5.20;;
7747;SDS011;3918;42.564;23.164;2023-09-19T06:15:14;11.13;;;5.63;;
7747;SDS011;3918;42.564;23.164;2023-09-19T06:17:46;5.78;;;5.15;;
7747;SDS011;3918;42.564;23.164;2023-09-19T06:20:15;10.57;;;5.75;;
7747;SDS011;3918;42.564;23.164;2023-09-19T06:22:43;106.15;;;10.88;;
7747;SDS011;3918;42.564;23.164;2023-09-19T06:25:11;24.67;;;6.10;;
7747;SDS011;3918;42.564;23.164;2023-09-19T06:27:41;30.15;;;6.50;;
7747;SDS011;3918;42.564;23.164;2023-09-19T06:30:09;23.77;;;6.03;;
7747;SDS011;3918;42.564;23.164;2023-09-19T06:32:38;10.55;;;5.53;;
7747;SDS011;3918;42.564;23.164;2023-09-19T06:35:05;15.00;;;6.90;;
7747;SDS011;3918;42.564;23.164;2023-09-19T06:37:35;6.50;;;5.90;;
7747;SDS011;3918;42.564;23.164;2023-09-19T06:40:04;7.03;;;5.55;;
7747;SDS011;3918;42.564;23.164;2023-09-19T06:42:34;12.27;;;5.30;;
7747;SDS011;3918;42.564;23.164;2023-09-19T06:45:02;12.57;;;5.70;;
7747;SDS011;3918;42.564;23.164;2023-09-19T06:47:29;6.40;;;5.70;;
7747;SDS011;3918;42.564;23.164;2023-09-19T06:49:57;6.10;;;5.50;;
7747;SDS011;3918;42.564;23.164;2023-09-19T06:52:24;28.48;;;7.18;;
7747;SDS011;3918;42.564;23.164;2023-09-19T06:54:52;9.27;;;5.40;;
7747;SDS011;3918;42.564;23.164;2023-09-19T06:57:19;10.95;;;5.47;;
7747;SDS011;3918;42.564;23.164;2023-09-19T06:59:46;6.78;;;6.07;;
7747;SDS011;3918;42.564;23.164;2023-09-19T07:02:12;9.43;;;6.35;;
7747;SDS011;3918;42.564;23.164;2023-09-19T07:04:40;7.63;;;6.35;;
7747;SDS011;3918;42.564;23.164;2023-09-19T07:07:06;13.90;;;6.60;;
7747;SDS011;3918;42.564;23.164;2023-09-19T07:09:34;11.18;;;5.85;;
7747;SDS011;3918;42.564;23.164;2023-09-19T07:12:02;11.30;;;6.03;;
7747;SDS011;3918;42.564;23.164;2023-09-19T07:14:29;12.57;;;5.88;;
7747;SDS011;3918;42.564;23.164;2023-09-19T07:16:56;11.07;;;5.93;;
7747;SDS011;3918;42.564;23.164;2023-09-19T07:19:25;9.25;;;6.00;;
7747;SDS011;3918;42.564;23.164;2023-09-19T07:21:53;11.00;;;5.80;;
7747;SDS011;3918;42.564;23.164;2023-09-19T07:24:20;6.68;;;5.78;;
7747;SDS011;3918;42.564;23.164;2023-09-19T07:26:49;10.43;;;6.22;;
7747;SDS011;3918;42.564;23.164;2023-09-19T07:29:17;15.25;;;6.00;;
7747;SDS011;3918;42.564;23.164;2023-09-19T07:31:44;8.77;;;6.03;;
7747;SDS011;3918;42.564;23.164;2023-09-19T07:34:12;9.30;;;6.73;;
7747;SDS011;3918;42.564;23.164;2023-09-19T07:36:39;11.15;;;5.68;;
7747;SDS011;3918;42.564;23.164;2023-09-19T07:39:07;10.23;;;6.30;;
7747;SDS011;3918;42.564;23.164;2023-09-19T07:41:33;11.30;;;6.20;;
7747;SDS011;3918;42.564;23.164;2023-09-19T07:44:00;9.70;;;6.75;;
7747;SDS011;3918;42.564;23.164;2023-09-19T07:46:28;11.05;;;6.10;;
7747;SDS011;3918;42.564;23.164;2023-09-19T07:48:56;9.40;;;6.78;;
7747;SDS011;3918;42.564;23.164;2023-09-19T07:51:23;11.73;;;6.10;;
7747;SDS011;3918;42.564;23.164;2023-09-19T07:53:50;12.90;;;7.38;;
7747;SDS011;3918;42.564;23.164;2023-09-19T07:56:17;10.35;;;6.57;;
7747;SDS011;3918;42.564;23.164;2023-09-19T07:58:45;7.63;;;6.03;;
7747;SDS011;3918;42.564;23.164;2023-09-19T08:01:12;9.15;;;6.72;;
7747;SDS011;3918;42.564;23.164;2023-09-19T08:03:42;12.57;;;6.53;;
7747;SDS011;3918;42.564;23.164;2023-09-19T08:06:10;18.13;;;6.65;;
7747;SDS011;3918;42.564;23.164;2023-09-19T08:08:39;7.88;;;6.13;;
7747;SDS011;3918;42.564;23.164;2023-09-19T08:11:06;9.68;;;6.07;;
7747;SDS011;3918;42.564;23.164;2023-09-19T08:13:36;6.88;;;5.72;;
7747;SDS011;3918;42.564;23.164;2023-09-19T08:16:06;10.55;;;6.10;;
7747;SDS011;3918;42.564;23.164;2023-09-19T08:18:33;13.98;;;5.95;;
7747;SDS011;3918;42.564;23.164;2023-09-19T08:21:01;9.35;;;6.47;;
7747;SDS011;3918;42.564;23.164;2023-09-19T08:23:28;8.43;;;6.05;;
7747;SDS011;3918;42.564;23.164;2023-09-19T08:25:57;10.82;;;5.97;;
7747;SDS011;3918;42.564;23.164;2023-09-19T08:28:27;11.65;;;5.75;;
7747;SDS011;3918;42.564;23.164;2023-09-19T08:30:54;11.60;;;6.40;;
7747;SDS011;3918;42.564;23.164;2023-09-19T08:33:23;25.85;;;7.57;;
7747;SDS011;3918;42.564;23.164;2023-09-19T08:35:49;19.58;;;7.47;;
7747;SDS011;3918;42.564;23.164;2023-09-19T08:38:18;16.90;;;6.75;;
7747;SDS011;3918;42.564;23.164;2023-09-19T08:40:45;13.13;;;6.53;;
7747;SDS011;3918;42.564;23.164;2023-09-19T08:43:12;8.00;;;6.00;;
7747;SDS011;3918;42.564;23.164;2023-09-19T08:45:39;13.00;;;6.75;;
7747;SDS011;3918;42.564;23.164;2023-09-19T08:48:12;12.32;;;6.80;;
7747;SDS011;3918;42.564;23.164;2023-09-19T08:50:48;11.70;;;6.75;;
7747;SDS011;3918;42.564;23.164;2023-09-19T08:53:21;11.40;;;7.20;;
7747;SDS011;3918;42.564;23.164;2023-09-19T08:55:54;17.02;;;6.95;;
7747;SDS011;3918;42.564;23.164;2023-09-19T08:58:23;63.40;;;18.67;;
7747;SDS011;3918;42.564;23.164;2023-09-19T09:00:54;17.30;;;7.97;;
7747;SDS011;3918;42.564;23.164;2023-09-19T09:03:22;10.20;;;6.20;;
7747;SDS011;3918;42.564;23.164;2023-09-19T09:05:51;14.50;;;6.60;;
7747;SDS011;3918;42.564;23.164;2023-09-19T09:08:18;15.02;;;6.80;;
7747;SDS011;3918;42.564;23.164;2023-09-19T09:10:47;11.02;;;6.78;;
7747;SDS011;3918;42.564;23.164;2023-09-19T09:13:15;19.65;;;6.95;;
7747;SDS011;3918;42.564;23.164;2023-09-19T09:15:43;23.08;;;7.18;;
7747;SDS011;3918;42.564;23.164;2023-09-19T09:18:10;16.35;;;7.25;;
7747;SDS011;3918;42.564;23.164;2023-09-19T09:20:38;13.13;;;7.07;;
7747;SDS011;3918;42.564;23.164;2023-09-19T09:23:06;19.38;;;7.07;;
7747;SDS011;3918;42.564;23.164;2023-09-19T09:25:50;12.27;;;6.40;;
7747;SDS011;3918;42.564;23.164;2023-09-19T09:28:21;8.23;;;5.75;;
7747;SDS011;3918;42.564;23.164;2023-09-19T09:30:49;15.00;;;5.70;;
7747;SDS011;3918;42.564;23.164;2023-09-19T09:33:17;8.88;;;5.95;;
7747;SDS011;3918;42.564;23.164;2023-09-19T09:35:47;14.38;;;6.03;;
7747;SDS011;3918;42.564;23.164;2023-09-19T09:38:17;12.25;;;5.90;;
7747;SDS011;3918;42.564;23.164;2023-09-19T09:40:48;11.52;;;7.03;;
7747;SDS011;3918;42.564;23.164;2023-09-19T09:43:28;10.68;;;5.93;;
7747;SDS011;3918;42.564;23.164;2023-09-19T09:49:05;11.00;;;6.28;;
7747;SDS011;3918;42.564;23.164;2023-09-19T09:51:41;18.40;;;6.72;;
7747;SDS011;3918;42.564;23.164;2023-09-19T09:54:13;20.70;;;6.47;;
7747;SDS011;3918;42.564;23.164;2023-09-19T09:56:51;22.83;;;6.70;;
7747;SDS011;3918;42.564;23.164;2023-09-19T09:59:20;14.55;;;5.82;;
7747;SDS011;3918;42.564;23.164;2023-09-19T10:01:49;19.65;;;6.78;;
7747;SDS011;3918;42.564;23.164;2023-09-19T10:04:26;16.20;;;6.22;;
7747;SDS011;3918;42.564;23.164;2023-09-19T10:07:01;11.45;;;6.40;;
7747;SDS011;3918;42.564;23.164;2023-09-19T10:09:32;18.15;;;6.55;;
7747;SDS011;3918;42.564;23.164;2023-09-19T10:12:12;14.63;;;6.43;;
7747;SDS011;3918;42.564;23.164;2023-09-19T10:14:43;6.82;;;5.72;;
7747;SDS011;3918;42.564;23.164;2023-09-19T10:17:12;16.65;;;6.47;;
7747;SDS011;3918;42.564;23.164;2023-09-19T10:19:42;15.27;;;6.57;;
7747;SDS011;3918;42.564;23.164;2023-09-19T10:22:13;8.98;;;5.68;;
7747;SDS011;3918;42.564;23.164;2023-09-19T10:24:41;12.52;;;6.00;;
7747;SDS011;3918;42.564;23.164;2023-09-19T10:27:11;6.72;;;6.13;;
7747;SDS011;3918;42.564;23.164;2023-09-19T10:29:42;12.50;;;6.75;;
7747;SDS011;3918;42.564;23.164;2023-09-19T10:32:15;37.75;;;7.90;;
7747;SDS011;3918;42.564;23.164;2023-09-19T10:34:44;21.77;;;6.60;;
7747;SDS011;3918;42.564;23.164;2023-09-19T10:37:13;12.77;;;6.00;;
7747;SDS011;3918;42.564;23.164;2023-09-19T10:39:45;13.38;;;6.35;;
7747;SDS011;3918;42.564;23.164;2023-09-19T10:42:13;29.17;;;6.97;;
7747;SDS011;3918;42.564;23.164;2023-09-19T10:44:46;26.70;;;6.88;;
7747;SDS011;3918;42.564;23.164;2023-09-19T10:47:18;21.75;;;6.90;;
7747;SDS011;3918;42.564;23.164;2023-09-19T10:49:45;16.55;;;6.90;;
7747;SDS011;3918;42.564;23.164;2023-09-19T10:52:13;22.83;;;6.72;;
7747;SDS011;3918;42.564;23.164;2023-09-19T10:54:45;13.65;;;6.85;;
7747;SDS011;3918;42.564;23.164;2023-09-19T10:57:18;20.38;;;6.65;;
7747;SDS011;3918;42.564;23.164;2023-09-19T11:00:01;16.17;;;7.03;;
7747;SDS011;3918;42.564;23.164;2023-09-19T11:05:43;44.25;;;7.75;;
7747;SDS011;3918;42.564;23.164;2023-09-19T11:08:30;16.30;;;6.40;;
7747;SDS011;3918;42.564;23.164;2023-09-19T11:10:59;14.25;;;6.65;;
7747;SDS011;3918;42.564;23.164;2023-09-19T11:13:28;9.43;;;5.88;;
7747;SDS011;3918;42.564;23.164;2023-09-19T11:16:04;14.43;;;6.63;;
7747;SDS011;3918;42.564;23.164;2023-09-19T11:24:29;19.23;;;7.67;;
7747;SDS011;3918;42.564;23.164;2023-09-19T11:29:45;16.38;;;7.70;;
7747;SDS011;3918;42.564;23.164;2023-09-19T11:32:15;88.45;;;12.75;;
7747;SDS011;3918;42.564;23.164;2023-09-19T11:34:45;25.02;;;8.80;;
7747;SDS011;3918;42.564;23.164;2023-09-19T11:40:47;43.42;;;9.02;;
7747;SDS011;3918;42.564;23.164;2023-09-19T11:43:34;59.83;;;9.18;;
7747;SDS011;3918;42.564;23.164;2023-09-19T11:46:01;16.80;;;7.43;;
7747;SDS011;3918;42.564;23.164;2023-09-19T11:48:33;136.68;;;15.35;;
7747;SDS011;3918;42.564;23.164;2023-09-19T11:51:16;27.33;;;8.18;;
7747;SDS011;3918;42.564;23.164;2023-09-19T11:53:51;60.58;;;9.20;;
7747;SDS011;3918;42.564;23.164;2023-09-19T11:56:19;16.00;;;7.35;;
7747;SDS011;3918;42.564;23.164;2023-09-19T11:58:49;27.73;;;8.23;;
7747;SDS011;3918;42.564;23.164;2023-09-19T12:01:21;19.00;;;8.23;;
7747;SDS011;3918;42.564;23.164;2023-09-19T12:03:54;17.00;;;7.43;;
7747;SDS011;3918;42.564;23.164;2023-09-19T12:06:23;35.33;;;9.30;;
7747;SDS011;3918;42.564;23.164;2023-09-19T12:08:51;14.20;;;7.45;;
7747;SDS011;3918;42.564;23.164;2023-09-19T12:11:19;18.27;;;8.13;;
7747;SDS011;3918;42.564;23.164;2023-09-19T12:13:48;26.08;;;8.98;;
7747;SDS011;3918;42.564;23.164;2023-09-19T12:16:16;25.15;;;8.07;;
7747;SDS011;3918;42.564;23.164;2023-09-19T12:18:47;22.65;;;8.23;;
7747;SDS011;3918;42.564;23.164;2023-09-19T12:21:26;24.15;;;8.65;;
7747;SDS011;3918;42.564;23.164;2023-09-19T12:24:00;37.40;;;9.35;;
7747;SDS011;3918;42.564;23.164;2023-09-19T12:26:37;23.98;;;7.80;;
7747;SDS011;3918;42.564;23.164;2023-09-19T12:29:09;15.00;;;7.75;;
7747;SDS011;3918;42.564;23.164;2023-09-19T12:31:46;14.57;;;7.20;;
7747;SDS011;3918;42.564;23.164;2023-09-19T12:34:19;17.23;;;7.80;;
7747;SDS011;3918;42.564;23.164;2023-09-19T12:36:48;12.32;;;6.90;;
7747;SDS011;3918;42.564;23.164;2023-09-19T12:39:22;20.15;;;8.15;;
7747;SDS011;3918;42.564;23.164;2023-09-19T12:41:51;28.02;;;7.60;;
7747;SDS011;3918;42.564;23.164;2023-09-19T12:44:19;21.60;;;8.15;;
7747;SDS011;3918;42.564;23.164;2023-09-19T12:46:46;17.08;;;7.28;;
7747;SDS011;3918;42.564;23.164;2023-09-19T12:49:16;13.10;;;7.60;;
7747;SDS011;3918;42.564;23.164;2023-09-19T12:51:45;34.05;;;8.68;;
7747;SDS011;3918;42.564;23.164;2023-09-19T12:54:14;23.25;;;7.38;;
7747;SDS011;3918;42.564;23.164;2023-09-19T12:56:42;26.92;;;7.38;;
7747;SDS011;3918;42.564;23.164;2023-09-19T12:59:12;20.80;;;7.95;;
7747;SDS011;3918;42.564;23.164;2023-09-19T13:01:39;17.35;;;7.88;;
7747;SDS011;3918;42.564;23.164;2023-09-19T13:04:15;112.30;;;14.65;;
7747;SDS011;3918;42.564;23.164;2023-09-19T13:06:45;19.15;;;8.13;;
7747;SDS011;3918;42.564;23.164;2023-09-19T13:09:15;25.10;;;7.55;;
7747;SDS011;3918;42.564;23.164;2023-09-19T13:11:42;20.80;;;7.57;;
7747;SDS011;3918;42.564;23.164;2023-09-19T13:14:15;21.45;;;7.45;;
7747;SDS011;3918;42.564;23.164;2023-09-19T13:16:56;27.40;;;7.57;;
7747;SDS011;3918;42.564;23.164;2023-09-19T13:19:36;159.63;;;16.92;;
7747;SDS011;3918;42.564;23.164;2023-09-19T13:22:04;26.58;;;7.18;;
7747;SDS011;3918;42.564;23.164;2023-09-19T13:24:35;15.52;;;7.65;;
7747;SDS011;3918;42.564;23.164;2023-09-19T13:27:05;17.85;;;6.80;;
7747;SDS011;3918;42.564;23.164;2023-09-19T13:29:32;12.38;;;7.05;;
7747;SDS011;3918;42.564;23.164;2023-09-19T13:31:59;22.63;;;7.32;;
7747;SDS011;3918;42.564;23.164;2023-09-19T13:34:27;10.68;;;7.55;;
7747;SDS011;3918;42.564;23.164;2023-09-19T13:36:54;12.82;;;7.32;;
7747;SDS011;3918;42.564;23.164;2023-09-19T13:39:21;13.70;;;7.05;;
7747;SDS011;3918;42.564;23.164;2023-09-19T13:41:51;21.80;;;7.22;;
7747;SDS011;3918;42.564;23.164;2023-09-19T13:44:18;19.27;;;7.70;;
7747;SDS011;3918;42.564;23.164;2023-09-19T13:46:44;21.10;;;7.57;;
7747;SDS011;3918;42.564;23.164;2023-09-19T13:49:11;10.00;;;6.82;;
7747;SDS011;3918;42.564;23.164;2023-09-19T13:51:38;20.00;;;7.70;;
7747;SDS011;3918;42.564;23.164;2023-09-19T13:54:08;31.27;;;7.75;;
7747;SDS011;3918;42.564;23.164;2023-09-19T13:56:36;17.10;;;6.72;;
7747;SDS011;3918;42.564;23.164;2023-09-19T13:59:05;19.52;;;7.75;;
7747;SDS011;3918;42.564;23.164;2023-09-19T14:01:32;9.80;;;6.28;;
7747;SDS011;3918;42.564;23.164;2023-09-19T14:03:59;10.20;;;6.88;;
7747;SDS011;3918;42.564;23.164;2023-09-19T14:06:25;15.48;;;7.28;;
7747;SDS011;3918;42.564;23.164;2023-09-19T14:08:52;11.38;;;7.00;;
7747;SDS011;3918;42.564;23.164;2023-09-19T14:11:19;11.02;;;7.18;;
7747;SDS011;3918;42.564;23.164;2023-09-19T14:13:46;14.23;;;7.05;;
7747;SDS011;3918;42.564;23.164;2023-09-19T14:16:15;8.88;;;6.38;;
7747;SDS011;3918;42.564;23.164;2023-09-19T14:18:44;27.08;;;7.47;;
7747;SDS011;3918;42.564;23.164;2023-09-19T14:21:11;19.30;;;6.72;;
7747;SDS011;3918;42.564;23.164;2023-09-19T14:23:38;17.60;;;7.53;;
7747;SDS011;3918;42.564;23.164;2023-09-19T14:26:05;12.07;;;6.60;;
7747;SDS011;3918;42.564;23.164;2023-09-19T14:28:31;9.85;;;6.55;;
7747;SDS011;3918;42.564;23.164;2023-09-19T14:31:03;13.70;;;6.63;;
7747;SDS011;3918;42.564;23.164;2023-09-19T14:33:32;9.35;;;6.40;;
7747;SDS011;3918;42.564;23.164;2023-09-19T14:36:02;10.63;;;6.30;;
7747;SDS011;3918;42.564;23.164;2023-09-19T14:38:30;14.90;;;6.43;;
7747;SDS011;3918;42.564;23.164;2023-09-19T14:40:59;12.63;;;6.50;;
7747;SDS011;3918;42.564;23.164;2023-09-19T14:43:26;8.98;;;6.18;;
7747;SDS011;3918;42.564;23.164;2023-09-19T14:45:54;11.43;;;7.20;;
7747;SDS011;3918;42.564;23.164;2023-09-19T14:48:22;20.17;;;6.82;;
7747;SDS011;3918;42.564;23.164;2023-09-19T14:50:51;17.60;;;7.00;;
7747;SDS011;3918;42.564;23.164;2023-09-19T14:53:20;11.27;;;6.40;;
7747;SDS011;3918;42.564;23.164;2023-09-19T14:55:47;16.50;;;6.80;;
7747;SDS011;3918;42.564;23.164;2023-09-19T14:58:17;12.45;;;5.63;;
7747;SDS011;3918;42.564;23.164;2023-09-19T15:00:44;15.25;;;6.70;;
7747;SDS011;3918;42.564;23.164;2023-09-19T15:03:11;10.20;;;6.63;;
7747;SDS011;3918;42.564;23.164;2023-09-19T15:05:38;19.40;;;6.63;;
7747;SDS011;3918;42.564;23.164;2023-09-19T15:08:07;13.30;;;6.07;;
7747;SDS011;3918;42.564;23.164;2023-09-19T15:10:33;10.60;;;6.20;;
7747;SDS011;3918;42.564;23.164;2023-09-19T15:13:00;11.55;;;6.43;;
7747;SDS011;3918;42.564;23.164;2023-09-19T15:15:27;12.05;;;6.93;;
7747;SDS011;3918;42.564;23.164;2023-09-19T15:17:53;12.48;;;6.70;;
7747;SDS011;3918;42.564;23.164;2023-09-19T15:20:20;13.27;;;6.75;;
7747;SDS011;3918;42.564;23.164;2023-09-19T15:22:47;9.15;;;6.63;;
7747;SDS011;3918;42.564;23.164;2023-09-19T15:25:16;11.70;;;6.55;;
7747;SDS011;3918;42.564;23.164;2023-09-19T15:27:42;15.73;;;6.78;;
7747;SDS011;3918;42.564;23.164;2023-09-19T15:30:10;11.85;;;6.63;;
7747;SDS011;3918;42.564;23.164;2023-09-19T15:32:40;13.63;;;6.75;;
7747;SDS011;3918;42.564;23.164;2023-09-19T15:35:07;11.80;;;7.00;;
7747;SDS011;3918;42.564;23.164;2023-09-19T15:37:36;10.10;;;6.95;;
7747;SDS011;3918;42.564;23.164;2023-09-19T15:40:03;10.38;;;6.45;;
7747;SDS011;3918;42.564;23.164;2023-09-19T15:42:35;11.77;;;6.85;;
7747;SDS011;3918;42.564;23.164;2023-09-19T15:45:01;13.23;;;7.28;;
7747;SDS011;3918;42.564;23.164;2023-09-19T15:47:29;10.80;;;7.22;;
7747;SDS011;3918;42.564;23.164;2023-09-19T15:49:56;13.48;;;7.97;;
7747;SDS011;3918;42.564;23.164;2023-09-19T15:52:22;13.48;;;7.00;;
7747;SDS011;3918;42.564;23.164;2023-09-19T15:54:51;10.75;;;6.95;;
7747;SDS011;3918;42.564;23.164;2023-09-19T15:57:18;13.30;;;7.43;;
7747;SDS011;3918;42.564;23.164;2023-09-19T15:59:46;12.77;;;7.30;;
7747;SDS011;3918;42.564;23.164;2023-09-19T16:02:14;12.05;;;7.60;;
7747;SDS011;3918;42.564;23.164;2023-09-19T16:04:42;17.13;;;7.05;;
7747;SDS011;3918;42.564;23.164;2023-09-19T16:07:10;9.98;;;6.22;;
7747;SDS011;3918;42.564;23.164;2023-09-19T16:09:37;14.45;;;8.05;;
7747;SDS011;3918;42.564;23.164;2023-09-19T16:12:04;14.27;;;7.40;;
7747;SDS011;3918;42.564;23.164;2023-09-19T16:14:31;16.23;;;8.10;;
7747;SDS011;3918;42.564;23.164;2023-09-19T16:17:00;13.88;;;8.07;;
7747;SDS011;3918;42.564;23.164;2023-09-19T16:19:27;11.25;;;7.88;;
7747;SDS011;3918;42.564;23.164;2023-09-19T16:21:54;9.68;;;8.05;;
7747;SDS011;3918;42.564;23.164;2023-09-19T16:24:23;16.23;;;8.93;;
7747;SDS011;3918;42.564;23.164;2023-09-19T16:26:55;12.65;;;8.20;;
7747;SDS011;3918;42.564;23.164;2023-09-19T16:29:22;11.70;;;9.10;;
7747;SDS011;3918;42.564;23.164;2023-09-19T16:31:49;17.30;;;8.98;;
7747;SDS011;3918;42.564;23.164;2023-09-19T16:34:18;10.77;;;8.80;;
7747;SDS011;3918;42.564;23.164;2023-09-19T16:36:48;13.50;;;9.02;;
7747;SDS011;3918;42.564;23.164;2023-09-19T16:39:15;12.98;;;8.02;;
7747;SDS011;3918;42.564;23.164;2023-09-19T16:41:43;11.20;;;9.38;;
7747;SDS011;3918;42.564;23.164;2023-09-19T16:44:11;15.43;;;8.82;;
7747;SDS011;3918;42.564;23.164;2023-09-19T16:46:38;12.40;;;8.88;;
7747;SDS011;3918;42.564;23.164;2023-09-19T16:49:05;11.35;;;8.95;;
7747;SDS011;3918;42.564;23.164;2023-09-19T16:51:33;16.02;;;9.60;;
7747;SDS011;3918;42.564;23.164;2023-09-19T16:54:00;14.05;;;10.00;;
7747;SDS011;3918;42.564;23.164;2023-09-19T16:56:27;13.55;;;9.52;;
7747;SDS011;3918;42.564;23.164;2023-09-19T16:58:57;12.23;;;9.23;;
7747;SDS011;3918;42.564;23.164;2023-09-19T17:01:26;13.23;;;9.07;;
7747;SDS011;3918;42.564;23.164;2023-09-19T17:03:53;11.07;;;9.65;;
7747;SDS011;3918;42.564;23.164;2023-09-19T17:06:22;12.57;;;10.23;;
7747;SDS011;3918;42.564;23.164;2023-09-19T17:08:51;13.25;;;9.30;;
7747;SDS011;3918;42.564;23.164;2023-09-19T17:11:17;16.58;;;9.65;;
7747;SDS011;3918;42.564;23.164;2023-09-19T17:13:45;19.00;;;9.27;;
7747;SDS011;3918;42.564;23.164;2023-09-19T17:16:14;13.32;;;9.18;;
7747;SDS011;3918;42.564;23.164;2023-09-19T17:18:45;16.50;;;9.27;;
7747;SDS011;3918;42.564;23.164;2023-09-19T17:21:12;12.50;;;8.82;;
7747;SDS011;3918;42.564;23.164;2023-09-19T17:23:40;12.77;;;8.55;;
7747;SDS011;3918;42.564;23.164;2023-09-19T17:26:08;14.77;;;8.50;;
7747;SDS011;3918;42.564;23.164;2023-09-19T17:28:39;14.32;;;9.43;;
7747;SDS011;3918;42.564;23.164;2023-09-19T17:31:08;11.00;;;9.07;;
7747;SDS011;3918;42.564;23.164;2023-09-19T17:33:37;12.90;;;8.60;;
7747;SDS011;3918;42.564;23.164;2023-09-19T17:36:07;11.45;;;8.35;;
7747;SDS011;3918;42.564;23.164;2023-09-19T17:38:35;12.82;;;8.05;;
7747;SDS011;3918;42.564;23.164;2023-09-19T17:41:02;10.50;;;8.13;;
7747;SDS011;3918;42.564;23.164;2023-09-19T17:43:34;15.77;;;8.57;;
7747;SDS011;3918;42.564;23.164;2023-09-19T17:46:07;11.73;;;7.85;;
7747;SDS011;3918;42.564;23.164;2023-09-19T17:48:35;14.98;;;8.77;;
7747;SDS011;3918;42.564;23.164;2023-09-19T17:51:02;13.52;;;8.30;;
7747;SDS011;3918;42.564;23.164;2023-09-19T17:53:30;15.10;;;8.48;;
7747;SDS011;3918;42.564;23.164;2023-09-19T17:55:57;12.40;;;8.25;;
7747;SDS011;3918;42.564;23.164;2023-09-19T17:58:26;14.55;;;8.57;;
7747;SDS011;3918;42.564;23.164;2023-09-19T18:00:54;12.13;;;8.38;;
7747;SDS011;3918;42.564;23.164;2023-09-19T18:03:22;14.82;;;8.25;;
7747;SDS011;3918;42.564;23.164;2023-09-19T18:05:51;9.77;;;8.00;;
7747;SDS011;3918;42.564;23.164;2023-09-19T18:08:18;10.75;;;7.47;;
7747;SDS011;3918;42.564;23.164;2023-09-19T18:10:46;8.73;;;7.70;;
7747;SDS011;3918;42.564;23.164;2023-09-19T18:13:13;15.10;;;8.00;;
7747;SDS011;3918;42.564;23.164;2023-09-19T18:15:40;15.40;;;7.90;;
7747;SDS011;3918;42.564;23.164;2023-09-19T18:18:08;10.80;;;7.07;;
7747;SDS011;3918;42.564;23.164;2023-09-19T18:20:37;10.90;;;7.80;;
7747;SDS011;3918;42.564;23.164;2023-09-19T18:23:05;11.80;;;8.00;;
7747;SDS011;3918;42.564;23.164;2023-09-19T18:25:32;13.57;;;7.95;;
7747;SDS011;3918;42.564;23.164;2023-09-19T18:27:59;15.68;;;7.32;;
7747;SDS011;3918;42.564;23.164;2023-09-19T18:30:26;10.75;;;6.82;;
7747;SDS011;3918;42.564;23.164;2023-09-19T18:32:53;12.13;;;7.18;;
7747;SDS011;3918;42.564;23.164;2023-09-19T18:35:21;9.85;;;7.30;;
7747;SDS011;3918;42.564;23.164;2023-09-19T18:37:48;13.18;;;7.75;;
7747;SDS011;3918;42.564;23.164;2023-09-19T18:40:17;14.57;;;7.55;;
7747;SDS011;3918;42.564;23.164;2023-09-19T18:42:43;10.27;;;6.78;;
7747;SDS011;3918;42.564;23.164;2023-09-19T18:45:10;10.70;;;7.00;;
7747;SDS011;3918;42.564;23.164;2023-09-19T18:47:37;12.80;;;6.93;;
7747;SDS011;3918;42.564;23.164;2023-09-19T18:50:05;11.77;;;7.28;;
7747;SDS011;3918;42.564;23.164;2023-09-19T18:52:35;18.27;;;6.93;;
7747;SDS011;3918;42.564;23.164;2023-09-19T18:55:04;11.13;;;6.40;;
7747;SDS011;3918;42.564;23.164;2023-09-19T18:57:34;14.02;;;6.95;;
7747;SDS011;3918;42.564;23.164;2023-09-19T19:00:01;23.83;;;7.50;;
